createdAt,value
2022-10-22T00:02:09.093Z,44.45
2022-10-22T00:04:39.189Z,44.76
2022-10-22T00:07:11.607Z,44.60
2022-10-22T00:09:41.099Z,44.85
2022-10-22T00:12:11.560Z,44.83
2022-10-22T00:14:43.023Z,44.96
2022-10-22T00:17:13.442Z,44.59
2022-10-22T00:19:43.354Z,44.40
2022-10-22T00:22:15.277Z,44.72
2022-10-22T00:24:45.536Z,44.30
2022-10-22T00:27:16.033Z,44.47
2022-10-22T00:29:46.336Z,44.76
2022-10-22T00:32:17.142Z,44.78
2022-10-22T00:34:47.684Z,44.73
2022-10-22T00:37:20.234Z,44.75
2022-10-22T00:39:50.501Z,45.03
2022-10-22T00:42:26.385Z,44.80
2022-10-22T00:45:23.147Z,44.67
2022-10-22T00:47:59.921Z,45.09
2022-10-22T00:50:34.925Z,44.60
2022-10-22T00:53:12.479Z,45.09
2022-10-22T00:55:46.320Z,44.44
2022-10-22T00:58:17.788Z,44.86
2022-10-22T01:00:48.488Z,44.85
2022-10-22T01:03:18.714Z,44.50
2022-10-22T01:05:58.183Z,45.08
2022-10-22T01:08:46.791Z,45.18
2022-10-22T01:11:25.380Z,45.28
2022-10-22T01:14:07.138Z,44.94
2022-10-22T01:16:49.253Z,44.64
2022-10-22T01:19:46.780Z,45.09
2022-10-22T01:22:30.621Z,44.82
2022-10-22T01:25:11.734Z,44.93
2022-10-22T01:28:02.627Z,44.69
2022-10-22T01:30:42.767Z,45.12
2022-10-22T01:33:17.590Z,45.08
2022-10-22T01:35:48.803Z,45.11
2022-10-22T01:38:25.217Z,45.11
2022-10-22T01:40:55.846Z,45.27
2022-10-22T01:43:26.145Z,44.83
2022-10-22T01:46:03.545Z,44.73
2022-10-22T01:48:49.041Z,45.45
2022-10-22T01:51:41.329Z,45.38
2022-10-22T01:54:28.608Z,45.42
2022-10-22T01:57:10.914Z,45.03
2022-10-22T02:00:00.408Z,45.14
2022-10-22T02:02:43.268Z,44.96
2022-10-22T02:05:20.695Z,45.17
2022-10-22T02:07:56.993Z,45.03
2022-10-22T02:10:28.894Z,45.16
2022-10-22T02:13:01.922Z,45.21
2022-10-22T02:15:37.302Z,45.13
2022-10-22T02:18:11.845Z,45.07
2022-10-22T02:20:45.386Z,45.14
2022-10-22T02:23:15.820Z,44.78
2022-10-22T02:25:53.450Z,44.84
2022-10-22T02:28:34.834Z,45.15
2022-10-22T02:31:15.878Z,45.37
2022-10-22T02:33:54.268Z,44.99
2022-10-22T02:36:26.494Z,45.22
2022-10-22T02:39:05.033Z,44.95
2022-10-22T02:41:35.753Z,45.09
2022-10-22T02:44:10.289Z,45.02
2022-10-22T02:46:43.117Z,45.44
2022-10-22T02:49:14.952Z,45.08
2022-10-22T02:51:45.115Z,45.66
2022-10-22T02:54:15.638Z,45.29
2022-10-22T02:56:46.138Z,45.03
2022-10-22T02:59:16.373Z,45.54
2022-10-22T03:01:46.833Z,45.14
2022-10-22T03:04:19.163Z,45.01
2022-10-22T03:06:49.665Z,45.41
2022-10-22T03:09:22.665Z,45.16
2022-10-22T03:11:55.824Z,45.35
2022-10-22T03:14:25.902Z,45.16
2022-10-22T03:16:56.393Z,45.15
2022-10-22T03:19:28.161Z,45.52
2022-10-22T03:22:03.403Z,45.28
2022-10-22T03:24:38.451Z,45.22
2022-10-22T03:27:08.825Z,45.03
2022-10-22T03:29:42.032Z,45.36
2022-10-22T03:32:11.827Z,45.08
2022-10-22T03:34:44.161Z,45.29
2022-10-22T03:37:15.119Z,45.48
2022-10-22T03:39:45.571Z,45.17
2022-10-22T03:42:16.640Z,45.58
2022-10-22T03:44:47.193Z,45.66
2022-10-22T03:47:17.660Z,45.70
2022-10-22T03:49:49.453Z,45.56
2022-10-22T03:52:19.915Z,45.63
2022-10-22T03:54:49.777Z,45.51
2022-10-22T03:57:19.865Z,45.92
2022-10-22T03:59:51.392Z,45.70
2022-10-22T04:02:21.971Z,45.60
2022-10-22T04:04:53.622Z,45.51
2022-10-22T04:07:23.757Z,45.31
2022-10-22T04:09:54.066Z,45.98
2022-10-22T04:12:24.204Z,45.76
2022-10-22T04:14:54.513Z,45.60
2022-10-22T04:17:24.445Z,45.77
2022-10-22T04:19:56.565Z,45.24
2022-10-22T04:22:26.517Z,45.29
2022-10-22T04:24:56.074Z,45.56
2022-10-22T04:27:25.968Z,45.63
2022-10-22T04:29:56.177Z,45.81
2022-10-22T04:32:26.618Z,45.74
2022-10-22T04:34:58.540Z,45.66
2022-10-22T04:37:28.318Z,45.62
2022-10-22T04:39:59.927Z,45.79
2022-10-22T04:42:30.419Z,45.77
2022-10-22T04:45:01.007Z,45.59
2022-10-22T04:47:31.465Z,45.67
2022-10-22T04:50:03.617Z,46.01
2022-10-22T04:52:35.217Z,45.99
2022-10-22T04:55:05.540Z,45.87
2022-10-22T04:57:35.985Z,45.77
2022-10-22T05:00:07.737Z,45.93
2022-10-22T05:02:37.828Z,45.68
2022-10-22T05:05:12.280Z,46.34
2022-10-22T05:07:42.873Z,46.03
2022-10-22T05:10:13.707Z,46.06
2022-10-22T05:12:43.747Z,45.76
2022-10-22T05:15:13.965Z,45.96
2022-10-22T05:17:44.005Z,46.33
2022-10-22T05:20:16.070Z,46.40
2022-10-22T05:22:46.320Z,46.56
2022-10-22T05:25:16.579Z,46.49
2022-10-22T05:27:50.970Z,46.21
2022-10-22T05:30:21.407Z,46.31
2022-10-22T05:32:52.744Z,46.64
2022-10-22T05:35:25.187Z,46.67
2022-10-22T05:40:31.163Z,46.36
2022-10-22T05:43:02.588Z,46.17
2022-10-22T05:45:32.759Z,46.75
2022-10-22T05:48:02.539Z,46.08
2022-10-22T05:50:35.025Z,46.27
2022-10-22T05:53:05.501Z,46.42
2022-10-22T05:55:40.981Z,46.39
2022-10-22T05:58:13.026Z,45.88
2022-10-22T06:00:42.737Z,46.19
2022-10-22T06:03:12.700Z,45.97
2022-10-22T06:05:44.815Z,46.36
2022-10-22T06:08:19.039Z,46.33
2022-10-22T06:10:49.650Z,46.26
2022-10-22T06:13:19.774Z,45.81
2022-10-22T06:15:49.554Z,45.45
2022-10-22T06:18:19.747Z,45.68
2022-10-22T06:20:52.279Z,45.58
2022-10-22T06:23:22.062Z,45.62
2022-10-22T06:26:00.405Z,45.23
2022-10-22T06:28:30.833Z,45.83
2022-10-22T06:31:01.830Z,45.80
2022-10-22T06:33:42.493Z,45.62
2022-10-22T06:36:18.666Z,45.58
2022-10-22T06:38:49.533Z,45.22
2022-10-22T06:41:19.733Z,45.23
2022-10-22T06:43:50.049Z,44.57
2022-10-22T06:46:22.851Z,44.84
2022-10-22T06:48:54.969Z,44.66
2022-10-22T06:51:28.726Z,44.14
2022-10-22T06:53:59.559Z,44.41
2022-10-22T06:56:31.970Z,44.43
2022-10-22T06:59:02.719Z,43.85
2022-10-22T07:01:36.321Z,43.66
2022-10-22T07:04:09.380Z,43.71
2022-10-22T07:06:41.390Z,43.70
2022-10-22T07:09:11.994Z,43.87
2022-10-22T07:11:46.001Z,43.68
2022-10-22T07:14:17.668Z,43.00
2022-10-22T07:16:48.059Z,43.50
2022-10-22T07:19:18.624Z,43.49
2022-10-22T07:21:50.628Z,43.24
2022-10-22T07:24:20.732Z,42.98
2022-10-22T07:26:51.206Z,42.72
2022-10-22T07:29:20.983Z,42.22
2022-10-22T07:31:51.945Z,42.05
2022-10-22T07:34:22.393Z,41.85
2022-10-22T07:36:53.710Z,42.04
2022-10-22T07:39:26.266Z,41.82
2022-10-22T07:41:56.670Z,42.27
2022-10-22T07:44:27.168Z,41.50
2022-10-22T07:46:56.989Z,41.74
2022-10-22T07:49:27.261Z,42.06
2022-10-22T07:51:59.307Z,41.81
2022-10-22T07:54:29.889Z,41.29
2022-10-22T07:57:00.304Z,41.46
2022-10-22T07:59:30.813Z,40.75
2022-10-22T08:02:00.776Z,40.82
2022-10-22T08:04:30.972Z,40.79
2022-10-22T08:07:04.255Z,41.10
2022-10-22T08:09:34.683Z,40.75
2022-10-22T08:12:05.209Z,40.83
2022-10-22T08:14:35.155Z,40.71
2022-10-22T08:17:05.642Z,41.05
2022-10-22T08:19:36.134Z,40.45
2022-10-22T08:22:08.935Z,40.36
2022-10-22T08:24:39.582Z,40.43
2022-10-22T08:27:10.080Z,40.58
2022-10-22T08:29:40.305Z,40.40
2022-10-22T08:32:10.007Z,40.56
2022-10-22T08:34:40.394Z,40.39
2022-10-22T08:37:14.831Z,40.51
2022-10-22T08:39:45.037Z,40.20
2022-10-22T08:43:01.789Z,40.59
2022-10-22T08:45:42.304Z,40.10
2022-10-22T08:48:29.515Z,39.92
2022-10-22T08:51:01.169Z,40.58
2022-10-22T08:53:48.494Z,40.61
2022-10-22T08:56:19.359Z,40.01
2022-10-22T08:59:01.383Z,39.97
2022-10-22T09:01:42.033Z,39.96
2022-10-22T09:04:25.789Z,40.31
2022-10-22T09:07:00.424Z,39.97
2022-10-22T09:09:41.062Z,40.07
2022-10-22T09:12:20.261Z,40.42
2022-10-22T09:14:51.224Z,39.93
2022-10-22T09:17:34.319Z,40.24
2022-10-22T09:20:17.627Z,40.12
2022-10-22T09:23:01.919Z,39.97
2022-10-22T09:25:38.714Z,40.30
2022-10-22T09:28:11.648Z,40.47
2022-10-22T09:30:43.949Z,40.47
2022-10-22T09:33:21.501Z,40.35
2022-10-22T09:35:57.874Z,40.18
2022-10-22T09:38:31.281Z,40.26
2022-10-22T09:41:05.517Z,40.02
2022-10-22T09:43:37.372Z,40.33
2022-10-22T09:46:10.847Z,39.54
2022-10-22T09:48:45.697Z,40.03
2022-10-22T09:51:22.320Z,39.95
2022-10-22T09:54:02.021Z,39.87
2022-10-22T09:56:46.668Z,39.63
2022-10-22T09:59:19.384Z,39.33
2022-10-22T10:02:13.368Z,39.80
2022-10-22T10:04:52.675Z,39.91
2022-10-22T10:07:26.449Z,39.96
2022-10-22T10:09:58.627Z,39.53
2022-10-22T10:15:29.818Z,39.33
2022-10-22T10:18:15.168Z,39.86
2022-10-22T10:20:58.145Z,39.50
2022-10-22T10:23:38.480Z,39.71
2022-10-22T10:26:17.506Z,39.55
2022-10-22T10:29:07.119Z,39.86
2022-10-22T10:31:55.441Z,39.59
2022-10-22T10:34:45.027Z,39.93
2022-10-22T10:37:24.809Z,39.53
2022-10-22T10:40:24.265Z,39.38
2022-10-22T10:43:00.933Z,40.06
2022-10-22T10:45:44.721Z,39.66
2022-10-22T10:48:52.475Z,39.82
2022-10-22T10:51:43.177Z,39.56
2022-10-22T10:54:43.122Z,39.53
2022-10-22T10:57:27.508Z,40.03
2022-10-22T11:00:09.299Z,39.83
2022-10-22T11:03:49.143Z,40.08
2022-10-22T11:06:25.553Z,39.75
2022-10-22T11:09:03.507Z,40.05
2022-10-22T11:11:44.481Z,40.06
2022-10-22T11:14:24.256Z,39.68
2022-10-22T11:17:03.278Z,39.83
2022-10-22T11:19:51.709Z,39.58
2022-10-22T11:22:32.680Z,40.01
2022-10-22T11:25:16.651Z,39.82
2022-10-22T11:27:56.629Z,39.77
2022-10-22T11:30:35.689Z,39.73
2022-10-22T11:33:12.896Z,39.81
2022-10-22T11:35:47.999Z,40.10
2022-10-22T11:38:24.917Z,40.29
2022-10-22T11:41:01.541Z,40.17
2022-10-22T11:43:35.941Z,39.70
2022-10-22T11:46:37.937Z,39.81
2022-10-22T11:49:24.681Z,40.33
2022-10-22T11:52:27.202Z,39.84
2022-10-22T11:55:01.049Z,39.83
2022-10-22T11:57:39.917Z,40.25
2022-10-22T12:00:38.403Z,39.92
2022-10-22T12:03:26.000Z,40.36
2022-10-22T12:06:23.360Z,40.48
2022-10-22T12:09:05.241Z,40.04
2022-10-22T12:11:43.005Z,40.10
2022-10-22T12:14:27.529Z,40.44
2022-10-22T12:17:05.564Z,39.95
2022-10-22T12:19:40.633Z,40.44
2022-10-22T12:22:25.080Z,39.96
2022-10-22T12:25:02.649Z,40.05
2022-10-22T12:27:39.967Z,40.26
2022-10-22T12:30:24.038Z,39.93
2022-10-22T12:32:57.986Z,40.05
2022-10-22T12:35:31.288Z,40.25
2022-10-22T12:38:04.477Z,40.44
2022-10-22T12:40:38.963Z,40.37
2022-10-22T12:43:15.773Z,40.51
2022-10-22T12:45:49.479Z,40.51
2022-10-22T12:48:25.098Z,40.52
2022-10-22T12:50:58.184Z,40.22
2022-10-22T12:53:33.450Z,40.65
2022-10-22T12:56:09.052Z,40.25
2022-10-22T12:58:44.995Z,40.53
2022-10-22T13:01:18.933Z,40.67
2022-10-22T13:03:54.663Z,40.18
2022-10-22T13:06:28.258Z,40.32
2022-10-22T13:09:15.363Z,40.28
2022-10-22T13:11:55.821Z,40.65
2022-10-22T13:14:32.415Z,40.83
2022-10-22T13:17:19.078Z,40.39
2022-10-22T13:20:02.158Z,40.92
2022-10-22T13:22:36.990Z,40.75
2022-10-22T13:25:25.620Z,40.93
2022-10-22T13:28:01.343Z,40.64
2022-10-22T13:30:37.293Z,40.37
2022-10-22T13:33:20.380Z,41.06
2022-10-22T13:35:51.588Z,41.14
2022-10-22T13:38:30.449Z,41.17
2022-10-22T13:41:01.012Z,41.17
2022-10-22T13:43:33.498Z,41.13
2022-10-22T13:46:04.104Z,41.16
2022-10-22T13:48:34.891Z,41.00
2022-10-22T13:51:06.402Z,40.59
2022-10-22T13:53:36.507Z,40.52
2022-10-22T13:56:07.006Z,40.93
2022-10-22T13:58:38.936Z,40.76
2022-10-22T14:01:18.877Z,40.81
2022-10-22T14:03:51.664Z,40.73
2022-10-22T14:06:24.945Z,40.76
2022-10-22T14:09:00.085Z,41.18
2022-10-22T14:11:31.705Z,41.14
2022-10-22T14:14:09.060Z,41.10
2022-10-22T14:16:40.788Z,40.84
2022-10-22T14:19:18.936Z,40.70
2022-10-22T14:21:52.531Z,40.84
2022-10-22T14:24:22.297Z,41.21
2022-10-22T14:26:52.800Z,41.41
2022-10-22T14:29:24.466Z,41.30
2022-10-22T14:31:54.490Z,41.21
2022-10-22T14:34:24.099Z,40.85
2022-10-22T14:36:56.068Z,41.26
2022-10-22T14:39:26.619Z,41.45
2022-10-22T14:41:56.856Z,41.06
2022-10-22T14:44:29.160Z,41.24
2022-10-22T14:46:59.514Z,41.40
2022-10-22T14:49:29.951Z,41.43
2022-10-22T14:51:59.966Z,41.43
2022-10-22T14:54:30.398Z,41.00
2022-10-22T14:57:03.674Z,41.02
2022-10-22T14:59:35.760Z,41.50
2022-10-22T15:02:05.603Z,41.12
2022-10-22T15:04:36.155Z,41.20
2022-10-22T15:07:06.652Z,40.99
2022-10-22T15:09:36.763Z,41.57
2022-10-22T15:12:07.549Z,41.16
2022-10-22T15:14:38.882Z,41.21
2022-10-22T15:17:09.168Z,41.09
2022-10-22T15:19:40.109Z,41.06
2022-10-22T15:22:10.358Z,40.97
2022-10-22T15:24:40.406Z,41.51
2022-10-22T15:27:10.502Z,41.10
2022-10-22T15:29:44.174Z,41.44
2022-10-22T15:32:14.412Z,41.08
2022-10-22T15:34:44.714Z,41.39
2022-10-22T15:37:16.318Z,41.38
2022-10-22T15:39:46.469Z,41.15
2022-10-22T15:42:17.413Z,41.68
2022-10-22T15:44:49.504Z,41.70
2022-10-22T15:47:20.047Z,41.32
2022-10-22T15:49:50.463Z,41.25
2022-10-22T15:52:22.022Z,41.69
2022-10-22T15:54:52.272Z,41.81
2022-10-22T15:57:22.272Z,41.68
2022-10-22T15:59:54.742Z,41.44
2022-10-22T16:02:24.683Z,41.76
2022-10-22T16:04:55.524Z,41.71
2022-10-22T16:07:26.175Z,41.86
2022-10-22T16:10:00.425Z,41.60
2022-10-22T16:12:30.557Z,41.75
2022-10-22T16:15:02.769Z,41.58
2022-10-22T16:17:33.110Z,41.95
2022-10-22T16:20:03.548Z,41.73
2022-10-22T16:22:33.824Z,41.82
2022-10-22T16:25:04.176Z,41.89
2022-10-22T16:27:34.057Z,42.01
2022-10-22T16:30:06.372Z,41.84
2022-10-22T16:32:35.927Z,41.96
2022-10-22T16:35:05.877Z,41.43
2022-10-22T16:37:36.490Z,41.80
2022-10-22T16:40:08.462Z,41.74
2022-10-22T16:42:38.839Z,41.59
2022-10-22T16:45:12.777Z,42.00
2022-10-22T16:47:43.356Z,42.25
2022-10-22T16:50:14.078Z,42.00
2022-10-22T16:52:44.614Z,42.02
2022-10-22T16:55:15.995Z,41.71
2022-10-22T16:57:45.598Z,42.31
2022-10-22T17:00:22.019Z,42.35
2022-10-22T17:02:55.843Z,42.07
2022-10-22T17:05:26.557Z,41.80
2022-10-22T17:07:56.595Z,42.30
2022-10-22T17:10:27.013Z,41.89
2022-10-22T17:12:57.178Z,42.13
2022-10-22T17:15:29.117Z,42.34
2022-10-22T17:18:01.428Z,42.67
2022-10-22T17:20:31.568Z,41.93
2022-10-22T17:23:01.885Z,42.50
2022-10-22T17:25:44.454Z,42.48
2022-10-22T17:28:14.648Z,42.28
2022-10-22T17:30:46.851Z,42.20
2022-10-22T17:33:17.048Z,42.67
2022-10-22T17:35:50.191Z,42.59
2022-10-22T17:38:21.085Z,42.38
2022-10-22T17:40:51.356Z,42.77
2022-10-22T17:43:20.941Z,42.60
2022-10-22T17:45:52.474Z,42.18
2022-10-22T17:48:22.878Z,42.79
2022-10-22T17:50:56.885Z,42.62
2022-10-22T17:53:29.074Z,42.60
2022-10-22T17:56:03.889Z,42.48
2022-10-22T17:58:33.998Z,42.65
2022-10-22T18:01:06.982Z,42.42
2022-10-22T18:03:38.068Z,42.55
2022-10-22T18:06:12.138Z,42.84
2022-10-22T18:08:42.810Z,43.13
2022-10-22T18:11:16.471Z,43.14
2022-10-22T18:13:48.002Z,42.75
2022-10-22T18:16:20.173Z,42.65
2022-10-22T18:18:51.917Z,42.47
2022-10-22T18:21:23.311Z,42.87
2022-10-22T18:23:54.039Z,43.28
2022-10-22T18:26:26.924Z,43.18
2022-10-22T18:29:00.029Z,43.11
2022-10-22T18:31:33.422Z,43.02
2022-10-22T18:34:03.643Z,43.46
2022-10-22T18:36:33.689Z,43.03
2022-10-22T18:39:05.848Z,43.54
2022-10-22T18:41:36.927Z,43.52
2022-10-22T18:44:08.710Z,43.37
2022-10-22T18:46:42.367Z,43.36
2022-10-22T18:49:20.491Z,42.93
2022-10-22T18:51:53.278Z,43.22
2022-10-22T18:54:24.784Z,42.86
2022-10-22T18:56:56.350Z,43.08
2022-10-22T18:59:30.659Z,43.16
2022-10-22T19:02:03.275Z,43.45
2022-10-22T19:04:37.312Z,43.49
2022-10-22T19:09:46.519Z,43.55
2022-10-22T19:12:16.937Z,43.26
2022-10-22T19:14:47.265Z,43.49
2022-10-22T19:17:19.285Z,43.22
2022-10-22T19:19:49.619Z,43.46
2022-10-22T19:22:21.334Z,43.49
2022-10-22T19:24:52.600Z,43.08
2022-10-22T19:27:23.118Z,43.52
2022-10-22T19:29:54.081Z,43.31
2022-10-22T19:32:30.123Z,43.05
2022-10-22T19:35:01.450Z,43.55
2022-10-22T19:37:31.645Z,43.24
2022-10-22T19:40:01.783Z,43.26
2022-10-22T19:42:32.446Z,42.98
2022-10-22T19:45:02.361Z,43.29
2022-10-22T19:47:34.831Z,43.05
2022-10-22T19:50:05.219Z,43.50
2022-10-22T19:52:36.150Z,43.59
2022-10-22T19:55:07.250Z,43.34
2022-10-22T19:57:38.360Z,43.54
2022-10-22T20:00:11.345Z,43.61
2022-10-22T20:02:43.688Z,43.52
2022-10-22T20:05:14.425Z,43.16
2022-10-22T20:07:44.926Z,43.30
2022-10-22T20:10:14.685Z,43.01
2022-10-22T20:12:45.109Z,43.55
2022-10-22T20:15:18.732Z,43.63
2022-10-22T20:17:50.911Z,43.19
2022-10-22T20:20:25.619Z,42.96
2022-10-22T20:22:57.589Z,43.59
2022-10-22T20:25:27.914Z,43.46
2022-10-22T20:27:58.296Z,43.51
2022-10-22T20:30:30.178Z,43.69
2022-10-22T20:33:02.617Z,43.25
2022-10-22T20:35:35.187Z,43.60
2022-10-22T20:38:05.753Z,43.71
2022-10-22T20:40:36.720Z,43.36
2022-10-22T20:43:09.504Z,43.32
2022-10-22T20:45:42.228Z,43.31
2022-10-22T20:48:15.282Z,43.40
2022-10-22T20:50:45.696Z,43.44
2022-10-22T20:53:16.939Z,43.71
2022-10-22T20:55:47.601Z,43.55
2022-10-22T20:58:18.153Z,43.81
2022-10-22T21:00:49.218Z,43.69
2022-10-22T21:03:21.124Z,43.44
2022-10-22T21:05:51.819Z,43.45
2022-10-22T21:08:22.183Z,43.47
2022-10-22T21:10:52.274Z,43.98
2022-10-22T21:13:22.787Z,43.87
2022-10-22T21:15:53.447Z,43.80
2022-10-22T21:18:25.839Z,43.53
2022-10-22T21:20:56.095Z,43.63
2022-10-22T21:23:26.628Z,43.33
2022-10-22T21:25:58.402Z,43.75
2022-10-22T21:31:00.862Z,43.84
2022-10-22T21:33:32.824Z,43.75
2022-10-22T21:36:04.287Z,43.91
2022-10-22T21:38:34.964Z,43.86
2022-10-22T21:41:08.277Z,43.93
2022-10-22T21:43:42.279Z,44.35
2022-10-22T21:46:15.931Z,44.26
2022-10-22T21:48:49.270Z,43.95
2022-10-22T21:51:23.917Z,43.58
2022-10-22T21:53:55.323Z,44.00
2022-10-22T21:56:29.809Z,44.01
2022-10-22T21:59:00.279Z,43.79
2022-10-22T22:01:30.208Z,44.01
2022-10-22T22:04:02.813Z,44.30
2022-10-22T22:06:35.700Z,43.81
2022-10-22T22:09:07.793Z,43.83
2022-10-22T22:11:37.629Z,43.96
2022-10-22T22:14:08.236Z,44.27
2022-10-22T22:16:38.586Z,43.94
2022-10-22T22:19:12.098Z,43.67
2022-10-22T22:21:43.620Z,44.09
2022-10-22T22:24:33.698Z,44.28
2022-10-22T22:27:04.522Z,44.09
2022-10-22T22:29:35.116Z,44.22
2022-10-22T22:32:06.899Z,43.89
2022-10-22T22:34:39.674Z,43.92
2022-10-22T22:37:11.131Z,44.11
2022-10-22T22:39:40.872Z,44.11
2022-10-22T22:42:10.939Z,44.08
2022-10-22T22:44:42.866Z,44.24
2022-10-22T22:47:13.379Z,44.21
2022-10-22T22:49:45.289Z,44.17
2022-10-22T22:52:15.476Z,44.15
2022-10-22T22:54:45.151Z,44.13
2022-10-22T22:57:16.722Z,44.10
2022-10-22T22:59:47.204Z,44.07
2022-10-22T23:02:18.718Z,44.06
2022-10-22T23:04:51.047Z,44.15
2022-10-22T23:07:21.326Z,44.59
2022-10-22T23:09:51.481Z,44.05
2022-10-22T23:12:21.671Z,44.08
2022-10-22T23:14:53.965Z,44.65
2022-10-22T23:17:24.428Z,44.44
2022-10-22T23:19:56.788Z,44.09
2022-10-22T23:22:27.299Z,44.07
2022-10-22T23:24:57.485Z,44.37
2022-10-22T23:27:27.341Z,44.20
2022-10-22T23:29:57.855Z,44.28
2022-10-22T23:32:28.324Z,44.12
2022-10-22T23:35:00.661Z,43.90
2022-10-22T23:37:30.757Z,44.41
2022-10-22T23:40:01.293Z,44.13
2022-10-22T23:42:31.289Z,44.34
2022-10-22T23:45:01.796Z,43.97
2022-10-22T23:47:32.454Z,44.38
2022-10-22T23:50:04.245Z,44.26
2022-10-22T23:52:34.232Z,44.30
2022-10-22T23:55:04.600Z,44.18
2022-10-22T23:57:35.244Z,44.42
